sensor_id;sensor_type;location;lat;lon;timestamp;temperature;humidity
7998;DHT22;4044;49.814;7.828;2024-02-14T00:02:10;7.70;99.90
7998;DHT22;4044;49.814;7.828;2024-02-14T00:04:37;7.80;99.90
7998;DHT22;4044;49.814;7.828;2024-02-14T00:07:04;7.90;99.90
7998;DHT22;4044;49.814;7.828;2024-02-14T00:09:29;8.00;99.90
7998;DHT22;4044;49.814;7.828;2024-02-14T00:11:55;8.00;99.80
7998;DHT22;4044;49.814;7.828;2024-02-14T00:14:20;8.20;99.60
7998;DHT22;4044;49.814;7.828;2024-02-14T00:16:46;8.20;99.50
7998;DHT22;4044;49.814;7.828;2024-02-14T00:19:11;8.20;99.30
7998;DHT22;4044;49.814;7.828;2024-02-14T00:21:37;8.30;99.10
7998;DHT22;4044;49.814;7.828;2024-02-14T00:24:04;8.30;99.00
7998;DHT22;4044;49.814;7.828;2024-02-14T00:26:30;8.40;98.90
7998;DHT22;4044;49.814;7.828;2024-02-14T00:28:55;8.40;98.90
7998;DHT22;4044;49.814;7.828;2024-02-14T00:31:21;8.30;99.20
7998;DHT22;4044;49.814;7.828;2024-02-14T00:33:47;8.00;99.60
7998;DHT22;4044;49.814;7.828;2024-02-14T00:36:12;7.70;99.90
7998;DHT22;4044;49.814;7.828;2024-02-14T00:38:38;7.70;99.90
7998;DHT22;4044;49.814;7.828;2024-02-14T00:41:03;7.60;99.90
7998;DHT22;4044;49.814;7.828;2024-02-14T00:43:29;7.40;99.90
7998;DHT22;4044;49.814;7.828;2024-02-14T00:45:55;7.40;99.90
7998;DHT22;4044;49.814;7.828;2024-02-14T00:48:25;7.20;99.90
7998;DHT22;4044;49.814;7.828;2024-02-14T00:50:50;7.10;99.90
7998;DHT22;4044;49.814;7.828;2024-02-14T00:53:17;7.00;99.90
7998;DHT22;4044;49.814;7.828;2024-02-14T00:55:44;7.00;99.90
7998;DHT22;4044;49.814;7.828;2024-02-14T00:58:09;6.90;99.90
7998;DHT22;4044;49.814;7.828;2024-02-14T01:00:35;6.70;99.90
7998;DHT22;4044;49.814;7.828;2024-02-14T01:03:01;6.50;99.90
7998;DHT22;4044;49.814;7.828;2024-02-14T01:05:27;6.40;99.90
7998;DHT22;4044;49.814;7.828;2024-02-14T01:07:53;6.40;99.90
7998;DHT22;4044;49.814;7.828;2024-02-14T01:10:19;6.30;99.90
7998;DHT22;4044;49.814;7.828;2024-02-14T01:12:45;6.30;99.90
7998;DHT22;4044;49.814;7.828;2024-02-14T01:15:10;6.20;99.90
7998;DHT22;4044;49.814;7.828;2024-02-14T01:17:36;6.10;99.90
7998;DHT22;4044;49.814;7.828;2024-02-14T01:20:04;6.10;99.90
7998;DHT22;4044;49.814;7.828;2024-02-14T01:22:30;6.00;99.90
7998;DHT22;4044;49.814;7.828;2024-02-14T01:24:55;6.00;99.90
7998;DHT22;4044;49.814;7.828;2024-02-14T01:27:21;5.90;99.90
7998;DHT22;4044;49.814;7.828;2024-02-14T01:29:48;5.90;99.90
7998;DHT22;4044;49.814;7.828;2024-02-14T01:32:14;6.00;99.90
7998;DHT22;4044;49.814;7.828;2024-02-14T01:34:39;6.10;99.90
7998;DHT22;4044;49.814;7.828;2024-02-14T01:37:05;6.20;99.90
7998;DHT22;4044;49.814;7.828;2024-02-14T01:39:31;6.40;99.90
7998;DHT22;4044;49.814;7.828;2024-02-14T01:41:57;6.50;99.90
7998;DHT22;4044;49.814;7.828;2024-02-14T01:44:22;6.60;99.90
7998;DHT22;4044;49.814;7.828;2024-02-14T01:46:48;6.80;99.90
7998;DHT22;4044;49.814;7.828;2024-02-14T01:49:15;6.90;99.90
7998;DHT22;4044;49.814;7.828;2024-02-14T01:51:42;7.10;99.90
7998;DHT22;4044;49.814;7.828;2024-02-14T01:54:11;7.20;99.90
7998;DHT22;4044;49.814;7.828;2024-02-14T01:56:37;7.30;99.90
7998;DHT22;4044;49.814;7.828;2024-02-14T01:59:03;7.40;99.90
7998;DHT22;4044;49.814;7.828;2024-02-14T02:01:31;7.60;99.90
7998;DHT22;4044;49.814;7.828;2024-02-14T02:03:57;7.70;99.90
7998;DHT22;4044;49.814;7.828;2024-02-14T02:06:23;7.70;99.90
7998;DHT22;4044;49.814;7.828;2024-02-14T02:08:49;7.80;99.90
7998;DHT22;4044;49.814;7.828;2024-02-14T02:11:15;7.90;99.90
7998;DHT22;4044;49.814;7.828;2024-02-14T02:13:40;8.10;99.90
7998;DHT22;4044;49.814;7.828;2024-02-14T02:16:06;8.20;99.90
7998;DHT22;4044;49.814;7.828;2024-02-14T02:18:32;8.30;99.90
7998;DHT22;4044;49.814;7.828;2024-02-14T02:20:58;8.30;99.90
7998;DHT22;4044;49.814;7.828;2024-02-14T02:23:23;8.40;99.70
7998;DHT22;4044;49.814;7.828;2024-02-14T02:25:49;8.50;99.50
7998;DHT22;4044;49.814;7.828;2024-02-14T02:28:16;8.60;99.70
7998;DHT22;4044;49.814;7.828;2024-02-14T02:30:41;8.60;99.60
7998;DHT22;4044;49.814;7.828;2024-02-14T02:33:07;8.70;99.50
7998;DHT22;4044;49.814;7.828;2024-02-14T02:35:33;8.90;99.60
7998;DHT22;4044;49.814;7.828;2024-02-14T02:37:59;8.90;99.60
7998;DHT22;4044;49.814;7.828;2024-02-14T02:40:25;8.90;99.30
7998;DHT22;4044;49.814;7.828;2024-02-14T02:42:53;8.90;99.60
7998;DHT22;4044;49.814;7.828;2024-02-14T02:45:18;9.00;99.50
7998;DHT22;4044;49.814;7.828;2024-02-14T02:47:44;9.00;99.40
7998;DHT22;4044;49.814;7.828;2024-02-14T02:50:10;9.10;99.00
7998;DHT22;4044;49.814;7.828;2024-02-14T02:52:35;9.10;99.00
7998;DHT22;4044;49.814;7.828;2024-02-14T02:55:01;9.10;99.40
7998;DHT22;4044;49.814;7.828;2024-02-14T02:57:28;9.10;99.60
7998;DHT22;4044;49.814;7.828;2024-02-14T02:59:54;9.10;99.30
7998;DHT22;4044;49.814;7.828;2024-02-14T03:02:20;9.20;99.20
7998;DHT22;4044;49.814;7.828;2024-02-14T03:04:46;9.20;99.20
7998;DHT22;4044;49.814;7.828;2024-02-14T03:07:12;9.20;99.00
7998;DHT22;4044;49.814;7.828;2024-02-14T03:09:38;9.10;99.00
7998;DHT22;4044;49.814;7.828;2024-02-14T03:12:04;9.10;98.90
7998;DHT22;4044;49.814;7.828;2024-02-14T03:14:33;9.00;99.30
7998;DHT22;4044;49.814;7.828;2024-02-14T03:17:05;9.00;99.40
7998;DHT22;4044;49.814;7.828;2024-02-14T03:19:30;8.90;99.20
7998;DHT22;4044;49.814;7.828;2024-02-14T03:21:56;8.90;99.30
7998;DHT22;4044;49.814;7.828;2024-02-14T03:24:25;9.10;99.50
7998;DHT22;4044;49.814;7.828;2024-02-14T03:26:52;9.10;99.60
7998;DHT22;4044;49.814;7.828;2024-02-14T03:29:19;9.10;99.50
7998;DHT22;4044;49.814;7.828;2024-02-14T03:31:48;9.20;99.50
7998;DHT22;4044;49.814;7.828;2024-02-14T03:34:13;9.20;99.60
7998;DHT22;4044;49.814;7.828;2024-02-14T03:36:39;9.10;99.20
7998;DHT22;4044;49.814;7.828;2024-02-14T03:39:05;9.10;99.60
7998;DHT22;4044;49.814;7.828;2024-02-14T03:41:32;9.10;99.40
7998;DHT22;4044;49.814;7.828;2024-02-14T03:43:57;9.10;99.60
7998;DHT22;4044;49.814;7.828;2024-02-14T03:46:28;9.00;99.60
7998;DHT22;4044;49.814;7.828;2024-02-14T03:48:54;9.00;99.70
7998;DHT22;4044;49.814;7.828;2024-02-14T03:51:22;9.00;99.80
7998;DHT22;4044;49.814;7.828;2024-02-14T03:53:48;9.10;99.70
7998;DHT22;4044;49.814;7.828;2024-02-14T03:56:14;9.20;99.90
7998;DHT22;4044;49.814;7.828;2024-02-14T03:58:41;9.20;99.70
7998;DHT22;4044;49.814;7.828;2024-02-14T04:01:07;9.20;99.80
7998;DHT22;4044;49.814;7.828;2024-02-14T04:03:33;9.30;99.80
7998;DHT22;4044;49.814;7.828;2024-02-14T04:05:59;9.20;99.90
7998;DHT22;4044;49.814;7.828;2024-02-14T04:08:24;9.20;99.90
7998;DHT22;4044;49.814;7.828;2024-02-14T04:10:50;9.30;99.90
7998;DHT22;4044;49.814;7.828;2024-02-14T04:13:16;9.30;99.90
7998;DHT22;4044;49.814;7.828;2024-02-14T04:15:42;9.20;99.90
7998;DHT22;4044;49.814;7.828;2024-02-14T04:18:08;9.30;99.90
7998;DHT22;4044;49.814;7.828;2024-02-14T04:20:34;9.30;99.90
7998;DHT22;4044;49.814;7.828;2024-02-14T04:23:00;9.30;99.90
7998;DHT22;4044;49.814;7.828;2024-02-14T04:25:25;9.30;99.90
7998;DHT22;4044;49.814;7.828;2024-02-14T04:27:51;9.20;99.90
7998;DHT22;4044;49.814;7.828;2024-02-14T04:30:16;9.20;99.90
7998;DHT22;4044;49.814;7.828;2024-02-14T04:32:42;9.30;99.90
7998;DHT22;4044;49.814;7.828;2024-02-14T04:35:09;9.20;99.90
7998;DHT22;4044;49.814;7.828;2024-02-14T04:37:34;9.30;99.90
7998;DHT22;4044;49.814;7.828;2024-02-14T04:40:01;9.20;99.90
7998;DHT22;4044;49.814;7.828;2024-02-14T04:42:26;9.30;99.90
7998;DHT22;4044;49.814;7.828;2024-02-14T04:44:52;9.40;99.90
7998;DHT22;4044;49.814;7.828;2024-02-14T04:47:17;9.30;99.90
7998;DHT22;4044;49.814;7.828;2024-02-14T04:49:43;9.30;99.90
7998;DHT22;4044;49.814;7.828;2024-02-14T04:52:08;9.30;99.90
7998;DHT22;4044;49.814;7.828;2024-02-14T04:54:34;9.40;99.90
7998;DHT22;4044;49.814;7.828;2024-02-14T04:56:59;9.30;99.90
7998;DHT22;4044;49.814;7.828;2024-02-14T04:59:25;9.40;99.90
7998;DHT22;4044;49.814;7.828;2024-02-14T05:01:51;9.30;99.90
7998;DHT22;4044;49.814;7.828;2024-02-14T05:04:18;9.40;99.90
7998;DHT22;4044;49.814;7.828;2024-02-14T05:06:44;9.40;99.90
7998;DHT22;4044;49.814;7.828;2024-02-14T05:09:10;9.40;99.90
7998;DHT22;4044;49.814;7.828;2024-02-14T05:11:40;9.50;99.90
7998;DHT22;4044;49.814;7.828;2024-02-14T05:14:05;9.50;99.90
7998;DHT22;4044;49.814;7.828;2024-02-14T05:16:31;9.50;99.90
7998;DHT22;4044;49.814;7.828;2024-02-14T05:18:57;9.50;99.90
7998;DHT22;4044;49.814;7.828;2024-02-14T05:21:22;9.40;99.90
7998;DHT22;4044;49.814;7.828;2024-02-14T05:23:48;9.50;99.90
7998;DHT22;4044;49.814;7.828;2024-02-14T05:26:14;9.50;99.90
7998;DHT22;4044;49.814;7.828;2024-02-14T05:28:39;9.50;99.90
7998;DHT22;4044;49.814;7.828;2024-02-14T05:31:05;9.40;99.90
7998;DHT22;4044;49.814;7.828;2024-02-14T05:33:31;9.40;99.90
7998;DHT22;4044;49.814;7.828;2024-02-14T05:35:56;9.40;99.90
7998;DHT22;4044;49.814;7.828;2024-02-14T05:38:22;9.40;99.90
7998;DHT22;4044;49.814;7.828;2024-02-14T05:40:48;9.40;99.90
7998;DHT22;4044;49.814;7.828;2024-02-14T05:43:14;9.40;99.90
7998;DHT22;4044;49.814;7.828;2024-02-14T05:45:40;9.40;99.90
7998;DHT22;4044;49.814;7.828;2024-02-14T05:48:07;9.30;99.90
7998;DHT22;4044;49.814;7.828;2024-02-14T05:50:33;9.30;99.90
7998;DHT22;4044;49.814;7.828;2024-02-14T05:52:59;9.30;99.90
7998;DHT22;4044;49.814;7.828;2024-02-14T05:55:25;9.40;99.90
7998;DHT22;4044;49.814;7.828;2024-02-14T05:57:51;9.30;99.90
7998;DHT22;4044;49.814;7.828;2024-02-14T06:00:18;9.30;99.90
7998;DHT22;4044;49.814;7.828;2024-02-14T06:02:44;9.40;99.90
7998;DHT22;4044;49.814;7.828;2024-02-14T06:05:10;9.40;99.90
7998;DHT22;4044;49.814;7.828;2024-02-14T06:07:39;9.40;99.90
7998;DHT22;4044;49.814;7.828;2024-02-14T06:10:06;9.40;99.90
7998;DHT22;4044;49.814;7.828;2024-02-14T06:12:32;9.40;99.90
7998;DHT22;4044;49.814;7.828;2024-02-14T06:14:58;9.40;99.90
7998;DHT22;4044;49.814;7.828;2024-02-14T06:17:23;9.40;99.90
7998;DHT22;4044;49.814;7.828;2024-02-14T06:19:49;9.40;99.90
7998;DHT22;4044;49.814;7.828;2024-02-14T06:22:14;9.40;99.90
7998;DHT22;4044;49.814;7.828;2024-02-14T06:24:40;9.30;99.90
7998;DHT22;4044;49.814;7.828;2024-02-14T06:27:06;9.40;99.90
7998;DHT22;4044;49.814;7.828;2024-02-14T06:29:32;9.50;99.90
7998;DHT22;4044;49.814;7.828;2024-02-14T06:31:58;9.50;99.90
7998;DHT22;4044;49.814;7.828;2024-02-14T06:34:23;9.50;99.90
7998;DHT22;4044;49.814;7.828;2024-02-14T06:36:49;9.60;99.90
7998;DHT22;4044;49.814;7.828;2024-02-14T06:39:15;9.50;99.90
7998;DHT22;4044;49.814;7.828;2024-02-14T06:41:40;9.40;99.90
7998;DHT22;4044;49.814;7.828;2024-02-14T06:44:06;9.40;99.90
7998;DHT22;4044;49.814;7.828;2024-02-14T06:46:32;9.40;99.90
7998;DHT22;4044;49.814;7.828;2024-02-14T06:48:57;9.40;99.90
7998;DHT22;4044;49.814;7.828;2024-02-14T06:51:23;9.50;99.90
7998;DHT22;4044;49.814;7.828;2024-02-14T06:53:50;9.40;99.90
7998;DHT22;4044;49.814;7.828;2024-02-14T06:56:16;9.40;99.90
7998;DHT22;4044;49.814;7.828;2024-02-14T06:58:41;9.40;99.90
7998;DHT22;4044;49.814;7.828;2024-02-14T07:01:07;9.40;99.90
7998;DHT22;4044;49.814;7.828;2024-02-14T07:03:33;9.50;99.90
7998;DHT22;4044;49.814;7.828;2024-02-14T07:05:59;9.50;99.90
7998;DHT22;4044;49.814;7.828;2024-02-14T07:08:24;9.50;99.90
7998;DHT22;4044;49.814;7.828;2024-02-14T07:10:52;9.40;99.90
7998;DHT22;4044;49.814;7.828;2024-02-14T07:13:18;9.40;99.90
7998;DHT22;4044;49.814;7.828;2024-02-14T07:15:43;9.50;99.90
7998;DHT22;4044;49.814;7.828;2024-02-14T07:18:09;9.40;99.90
7998;DHT22;4044;49.814;7.828;2024-02-14T07:20:35;9.50;99.90
7998;DHT22;4044;49.814;7.828;2024-02-14T07:23:01;9.40;99.90
7998;DHT22;4044;49.814;7.828;2024-02-14T07:25:27;9.40;99.90
7998;DHT22;4044;49.814;7.828;2024-02-14T07:27:52;9.40;99.90
7998;DHT22;4044;49.814;7.828;2024-02-14T07:30:18;9.40;99.90
7998;DHT22;4044;49.814;7.828;2024-02-14T07:32:44;9.40;99.90
7998;DHT22;4044;49.814;7.828;2024-02-14T07:35:10;9.50;99.90
7998;DHT22;4044;49.814;7.828;2024-02-14T07:37:36;9.50;99.90
7998;DHT22;4044;49.814;7.828;2024-02-14T07:40:02;9.60;99.90
7998;DHT22;4044;49.814;7.828;2024-02-14T07:42:28;9.60;99.90
7998;DHT22;4044;49.814;7.828;2024-02-14T07:44:53;9.70;99.90
7998;DHT22;4044;49.814;7.828;2024-02-14T07:47:21;9.80;99.90
7998;DHT22;4044;49.814;7.828;2024-02-14T07:49:47;9.90;99.90
7998;DHT22;4044;49.814;7.828;2024-02-14T07:52:12;10.00;99.90
7998;DHT22;4044;49.814;7.828;2024-02-14T07:54:38;10.00;99.90
7998;DHT22;4044;49.814;7.828;2024-02-14T07:57:03;9.90;99.90
7998;DHT22;4044;49.814;7.828;2024-02-14T07:59:29;9.90;99.90
7998;DHT22;4044;49.814;7.828;2024-02-14T08:01:54;9.80;99.90
7998;DHT22;4044;49.814;7.828;2024-02-14T08:04:20;9.80;99.90
7998;DHT22;4044;49.814;7.828;2024-02-14T08:06:46;9.70;99.90
7998;DHT22;4044;49.814;7.828;2024-02-14T08:09:14;9.80;99.90
7998;DHT22;4044;49.814;7.828;2024-02-14T08:11:40;9.80;99.90
7998;DHT22;4044;49.814;7.828;2024-02-14T08:14:05;9.80;99.90
7998;DHT22;4044;49.814;7.828;2024-02-14T08:16:31;9.90;99.90
7998;DHT22;4044;49.814;7.828;2024-02-14T08:18:57;9.90;99.90
7998;DHT22;4044;49.814;7.828;2024-02-14T08:21:25;10.00;99.90
7998;DHT22;4044;49.814;7.828;2024-02-14T08:23:52;10.20;99.90
7998;DHT22;4044;49.814;7.828;2024-02-14T08:26:17;10.20;99.90
7998;DHT22;4044;49.814;7.828;2024-02-14T08:28:43;10.20;99.90
7998;DHT22;4044;49.814;7.828;2024-02-14T08:31:11;10.30;99.90
7998;DHT22;4044;49.814;7.828;2024-02-14T08:33:37;10.20;99.90
7998;DHT22;4044;49.814;7.828;2024-02-14T08:36:06;10.30;99.90
7998;DHT22;4044;49.814;7.828;2024-02-14T08:38:35;10.30;99.90
7998;DHT22;4044;49.814;7.828;2024-02-14T08:41:01;10.40;99.90
7998;DHT22;4044;49.814;7.828;2024-02-14T08:43:28;10.50;99.90
7998;DHT22;4044;49.814;7.828;2024-02-14T08:45:56;10.70;99.90
7998;DHT22;4044;49.814;7.828;2024-02-14T08:48:22;10.70;99.90
7998;DHT22;4044;49.814;7.828;2024-02-14T08:50:48;10.70;99.90
7998;DHT22;4044;49.814;7.828;2024-02-14T08:53:14;10.70;99.90
7998;DHT22;4044;49.814;7.828;2024-02-14T08:55:41;10.80;99.90
7998;DHT22;4044;49.814;7.828;2024-02-14T08:58:06;10.90;99.90
7998;DHT22;4044;49.814;7.828;2024-02-14T09:00:35;11.00;99.90
7998;DHT22;4044;49.814;7.828;2024-02-14T09:03:02;11.10;99.90
7998;DHT22;4044;49.814;7.828;2024-02-14T09:05:28;11.20;99.90
7998;DHT22;4044;49.814;7.828;2024-02-14T09:07:54;11.20;99.90
7998;DHT22;4044;49.814;7.828;2024-02-14T09:10:20;11.40;99.90
7998;DHT22;4044;49.814;7.828;2024-02-14T09:12:46;11.40;99.90
7998;DHT22;4044;49.814;7.828;2024-02-14T09:15:11;11.50;99.90
7998;DHT22;4044;49.814;7.828;2024-02-14T09:17:37;11.60;99.90
7998;DHT22;4044;49.814;7.828;2024-02-14T09:20:06;11.60;99.90
7998;DHT22;4044;49.814;7.828;2024-02-14T09:22:35;11.70;99.90
7998;DHT22;4044;49.814;7.828;2024-02-14T09:25:01;11.90;99.90
7998;DHT22;4044;49.814;7.828;2024-02-14T09:27:32;11.90;99.90
7998;DHT22;4044;49.814;7.828;2024-02-14T09:29:58;12.00;99.90
7998;DHT22;4044;49.814;7.828;2024-02-14T09:32:24;12.30;99.90
7998;DHT22;4044;49.814;7.828;2024-02-14T09:34:50;12.20;99.90
7998;DHT22;4044;49.814;7.828;2024-02-14T09:37:16;12.20;99.90
7998;DHT22;4044;49.814;7.828;2024-02-14T09:39:42;12.00;99.90
7998;DHT22;4044;49.814;7.828;2024-02-14T09:42:11;12.00;99.90
7998;DHT22;4044;49.814;7.828;2024-02-14T09:44:40;12.00;99.90
7998;DHT22;4044;49.814;7.828;2024-02-14T09:47:06;12.00;99.90
7998;DHT22;4044;49.814;7.828;2024-02-14T09:49:35;11.90;99.90
7998;DHT22;4044;49.814;7.828;2024-02-14T09:52:01;12.10;99.90
7998;DHT22;4044;49.814;7.828;2024-02-14T09:54:29;12.20;99.90
7998;DHT22;4044;49.814;7.828;2024-02-14T09:56:57;12.20;99.90
7998;DHT22;4044;49.814;7.828;2024-02-14T09:59:24;11.90;99.90
7998;DHT22;4044;49.814;7.828;2024-02-14T10:01:49;12.00;99.90
7998;DHT22;4044;49.814;7.828;2024-02-14T10:04:16;12.10;99.90
7998;DHT22;4044;49.814;7.828;2024-02-14T10:06:43;12.00;99.90
7998;DHT22;4044;49.814;7.828;2024-02-14T10:09:09;12.00;99.90
7998;DHT22;4044;49.814;7.828;2024-02-14T10:11:35;11.90;99.90
7998;DHT22;4044;49.814;7.828;2024-02-14T10:14:02;11.90;99.90
7998;DHT22;4044;49.814;7.828;2024-02-14T10:16:29;12.10;99.90
7998;DHT22;4044;49.814;7.828;2024-02-14T10:18:55;12.20;99.90
7998;DHT22;4044;49.814;7.828;2024-02-14T10:21:21;12.30;99.90
7998;DHT22;4044;49.814;7.828;2024-02-14T10:23:47;12.10;99.90
7998;DHT22;4044;49.814;7.828;2024-02-14T10:26:17;12.10;99.90
7998;DHT22;4044;49.814;7.828;2024-02-14T10:28:43;12.20;99.90
7998;DHT22;4044;49.814;7.828;2024-02-14T10:31:10;12.50;99.90
7998;DHT22;4044;49.814;7.828;2024-02-14T10:33:36;12.50;99.90
7998;DHT22;4044;49.814;7.828;2024-02-14T10:36:02;12.50;99.90
7998;DHT22;4044;49.814;7.828;2024-02-14T10:38:31;12.50;99.90
7998;DHT22;4044;49.814;7.828;2024-02-14T10:41:00;12.60;99.90
7998;DHT22;4044;49.814;7.828;2024-02-14T10:43:27;12.80;99.90
7998;DHT22;4044;49.814;7.828;2024-02-14T10:45:53;12.90;99.90
7998;DHT22;4044;49.814;7.828;2024-02-14T10:48:22;12.90;99.90
7998;DHT22;4044;49.814;7.828;2024-02-14T10:50:53;12.80;99.90
7998;DHT22;4044;49.814;7.828;2024-02-14T10:53:19;12.60;99.90
7998;DHT22;4044;49.814;7.828;2024-02-14T10:55:47;12.80;99.90
7998;DHT22;4044;49.814;7.828;2024-02-14T10:58:15;12.70;99.90
7998;DHT22;4044;49.814;7.828;2024-02-14T11:00:42;12.80;99.90
7998;DHT22;4044;49.814;7.828;2024-02-14T11:03:09;12.80;99.90
7998;DHT22;4044;49.814;7.828;2024-02-14T11:05:45;13.00;99.90
7998;DHT22;4044;49.814;7.828;2024-02-14T11:08:15;13.30;99.90
7998;DHT22;4044;49.814;7.828;2024-02-14T11:10:41;13.40;99.90
7998;DHT22;4044;49.814;7.828;2024-02-14T11:13:12;13.20;99.90
7998;DHT22;4044;49.814;7.828;2024-02-14T11:15:44;13.20;99.90
7998;DHT22;4044;49.814;7.828;2024-02-14T11:18:10;13.20;99.90
7998;DHT22;4044;49.814;7.828;2024-02-14T11:20:36;13.20;99.90
7998;DHT22;4044;49.814;7.828;2024-02-14T11:23:03;13.10;99.90
7998;DHT22;4044;49.814;7.828;2024-02-14T11:25:31;13.20;99.90
7998;DHT22;4044;49.814;7.828;2024-02-14T11:27:58;13.20;99.90
7998;DHT22;4044;49.814;7.828;2024-02-14T11:30:33;13.20;99.90
7998;DHT22;4044;49.814;7.828;2024-02-14T11:35:41;13.20;99.90
7998;DHT22;4044;49.814;7.828;2024-02-14T11:38:08;13.10;99.90
7998;DHT22;4044;49.814;7.828;2024-02-14T11:40:38;13.10;99.90
7998;DHT22;4044;49.814;7.828;2024-02-14T11:43:12;13.30;99.90
7998;DHT22;4044;49.814;7.828;2024-02-14T11:45:39;13.30;99.90
7998;DHT22;4044;49.814;7.828;2024-02-14T11:48:08;13.40;99.90
7998;DHT22;4044;49.814;7.828;2024-02-14T11:50:34;13.60;99.90
7998;DHT22;4044;49.814;7.828;2024-02-14T11:52:59;13.70;99.90
7998;DHT22;4044;49.814;7.828;2024-02-14T11:55:30;13.70;99.90
7998;DHT22;4044;49.814;7.828;2024-02-14T11:57:55;13.80;99.90
7998;DHT22;4044;49.814;7.828;2024-02-14T12:00:22;13.90;99.90
7998;DHT22;4044;49.814;7.828;2024-02-14T12:02:47;13.90;99.90
7998;DHT22;4044;49.814;7.828;2024-02-14T12:05:15;13.90;99.90
7998;DHT22;4044;49.814;7.828;2024-02-14T12:07:41;13.50;99.90
7998;DHT22;4044;49.814;7.828;2024-02-14T12:10:07;13.20;99.90
7998;DHT22;4044;49.814;7.828;2024-02-14T12:12:34;13.00;99.90
7998;DHT22;4044;49.814;7.828;2024-02-14T12:15:02;13.10;99.90
7998;DHT22;4044;49.814;7.828;2024-02-14T12:17:27;12.90;99.90
7998;DHT22;4044;49.814;7.828;2024-02-14T12:20:05;12.90;99.90
7998;DHT22;4044;49.814;7.828;2024-02-14T12:22:31;12.80;99.90
7998;DHT22;4044;49.814;7.828;2024-02-14T12:24:57;12.70;99.90
7998;DHT22;4044;49.814;7.828;2024-02-14T12:27:23;12.70;99.90
7998;DHT22;4044;49.814;7.828;2024-02-14T12:29:49;12.60;99.90
7998;DHT22;4044;49.814;7.828;2024-02-14T12:32:17;12.40;99.90
7998;DHT22;4044;49.814;7.828;2024-02-14T12:34:44;12.10;99.90
7998;DHT22;4044;49.814;7.828;2024-02-14T12:37:10;11.90;99.90
7998;DHT22;4044;49.814;7.828;2024-02-14T12:39:37;11.70;99.90
7998;DHT22;4044;49.814;7.828;2024-02-14T12:42:03;11.60;99.90
7998;DHT22;4044;49.814;7.828;2024-02-14T12:44:30;11.70;99.90
7998;DHT22;4044;49.814;7.828;2024-02-14T12:46:55;11.90;99.90
7998;DHT22;4044;49.814;7.828;2024-02-14T12:49:21;12.10;99.90
7998;DHT22;4044;49.814;7.828;2024-02-14T12:51:47;12.20;99.90
7998;DHT22;4044;49.814;7.828;2024-02-14T12:54:12;12.30;99.90
7998;DHT22;4044;49.814;7.828;2024-02-14T12:56:40;12.30;99.90
7998;DHT22;4044;49.814;7.828;2024-02-14T12:59:05;12.40;99.90
7998;DHT22;4044;49.814;7.828;2024-02-14T13:01:31;12.40;99.90
7998;DHT22;4044;49.814;7.828;2024-02-14T13:03:57;12.40;99.90
7998;DHT22;4044;49.814;7.828;2024-02-14T13:06:23;12.50;99.90
7998;DHT22;4044;49.814;7.828;2024-02-14T13:08:49;12.50;99.90
7998;DHT22;4044;49.814;7.828;2024-02-14T13:11:14;12.30;99.90
7998;DHT22;4044;49.814;7.828;2024-02-14T13:13:41;12.20;99.90
7998;DHT22;4044;49.814;7.828;2024-02-14T13:16:07;12.30;99.90
7998;DHT22;4044;49.814;7.828;2024-02-14T13:18:33;12.40;99.90
7998;DHT22;4044;49.814;7.828;2024-02-14T13:21:00;12.40;99.90
7998;DHT22;4044;49.814;7.828;2024-02-14T13:23:26;12.40;99.90
7998;DHT22;4044;49.814;7.828;2024-02-14T13:25:51;12.40;99.90
7998;DHT22;4044;49.814;7.828;2024-02-14T13:28:17;12.40;99.90
7998;DHT22;4044;49.814;7.828;2024-02-14T13:30:43;12.30;99.90
7998;DHT22;4044;49.814;7.828;2024-02-14T13:33:09;12.40;99.90
7998;DHT22;4044;49.814;7.828;2024-02-14T13:35:37;12.40;99.90
7998;DHT22;4044;49.814;7.828;2024-02-14T13:38:04;12.40;99.90
7998;DHT22;4044;49.814;7.828;2024-02-14T13:40:31;12.20;99.90
7998;DHT22;4044;49.814;7.828;2024-02-14T13:42:57;12.30;99.90
7998;DHT22;4044;49.814;7.828;2024-02-14T13:45:23;12.40;99.90
7998;DHT22;4044;49.814;7.828;2024-02-14T13:47:49;12.40;99.90
7998;DHT22;4044;49.814;7.828;2024-02-14T13:50:14;12.50;99.90
7998;DHT22;4044;49.814;7.828;2024-02-14T13:52:40;12.60;99.90
7998;DHT22;4044;49.814;7.828;2024-02-14T13:55:06;12.40;99.90
7998;DHT22;4044;49.814;7.828;2024-02-14T13:57:36;12.40;99.90
7998;DHT22;4044;49.814;7.828;2024-02-14T14:00:04;12.50;99.90
7998;DHT22;4044;49.814;7.828;2024-02-14T14:02:29;12.50;99.90
7998;DHT22;4044;49.814;7.828;2024-02-14T14:04:55;12.40;99.90
7998;DHT22;4044;49.814;7.828;2024-02-14T14:07:20;12.40;99.90
7998;DHT22;4044;49.814;7.828;2024-02-14T14:09:46;12.30;99.90
7998;DHT22;4044;49.814;7.828;2024-02-14T14:12:12;12.20;99.90
7998;DHT22;4044;49.814;7.828;2024-02-14T14:14:37;12.00;99.90
7998;DHT22;4044;49.814;7.828;2024-02-14T14:17:03;12.00;99.90
7998;DHT22;4044;49.814;7.828;2024-02-14T14:19:29;12.00;99.90
7998;DHT22;4044;49.814;7.828;2024-02-14T14:21:54;11.90;99.90
7998;DHT22;4044;49.814;7.828;2024-02-14T14:24:21;11.80;99.90
7998;DHT22;4044;49.814;7.828;2024-02-14T14:26:47;11.70;99.90
7998;DHT22;4044;49.814;7.828;2024-02-14T14:29:12;11.80;99.90
7998;DHT22;4044;49.814;7.828;2024-02-14T14:31:38;11.90;99.90
7998;DHT22;4044;49.814;7.828;2024-02-14T14:34:03;12.20;99.90
7998;DHT22;4044;49.814;7.828;2024-02-14T14:36:29;12.10;99.90
7998;DHT22;4044;49.814;7.828;2024-02-14T14:38:54;12.20;99.90
7998;DHT22;4044;49.814;7.828;2024-02-14T14:41:20;12.20;99.90
7998;DHT22;4044;49.814;7.828;2024-02-14T14:43:46;12.10;99.90
7998;DHT22;4044;49.814;7.828;2024-02-14T14:46:15;12.00;99.90
7998;DHT22;4044;49.814;7.828;2024-02-14T14:48:40;12.10;99.90
7998;DHT22;4044;49.814;7.828;2024-02-14T14:51:05;12.20;99.90
7998;DHT22;4044;49.814;7.828;2024-02-14T14:53:31;12.30;99.90
7998;DHT22;4044;49.814;7.828;2024-02-14T14:55:57;12.30;99.90
7998;DHT22;4044;49.814;7.828;2024-02-14T14:58:26;12.40;99.90
7998;DHT22;4044;49.814;7.828;2024-02-14T15:00:56;12.30;99.90
7998;DHT22;4044;49.814;7.828;2024-02-14T15:03:22;12.40;99.90
7998;DHT22;4044;49.814;7.828;2024-02-14T15:05:48;12.50;99.90
7998;DHT22;4044;49.814;7.828;2024-02-14T15:08:14;12.30;99.90
7998;DHT22;4044;49.814;7.828;2024-02-14T15:10:40;12.30;99.90
7998;DHT22;4044;49.814;7.828;2024-02-14T15:13:08;12.40;99.90
7998;DHT22;4044;49.814;7.828;2024-02-14T15:15:35;12.50;99.90
7998;DHT22;4044;49.814;7.828;2024-02-14T15:18:01;12.40;99.90
7998;DHT22;4044;49.814;7.828;2024-02-14T15:20:26;12.50;99.90
7998;DHT22;4044;49.814;7.828;2024-02-14T15:22:52;12.50;99.90
7998;DHT22;4044;49.814;7.828;2024-02-14T15:25:17;12.60;99.90
7998;DHT22;4044;49.814;7.828;2024-02-14T15:27:43;12.70;99.90
7998;DHT22;4044;49.814;7.828;2024-02-14T15:30:26;12.90;99.90
7998;DHT22;4044;49.814;7.828;2024-02-14T15:33:10;12.80;99.90
7998;DHT22;4044;49.814;7.828;2024-02-14T15:35:54;12.70;99.90
7998;DHT22;4044;49.814;7.828;2024-02-14T15:38:20;12.80;99.90
7998;DHT22;4044;49.814;7.828;2024-02-14T15:40:47;12.90;99.90
7998;DHT22;4044;49.814;7.828;2024-02-14T15:43:13;12.80;99.90
7998;DHT22;4044;49.814;7.828;2024-02-14T15:45:39;13.00;99.90
7998;DHT22;4044;49.814;7.828;2024-02-14T15:48:05;13.00;99.90
7998;DHT22;4044;49.814;7.828;2024-02-14T15:50:32;13.20;99.90
7998;DHT22;4044;49.814;7.828;2024-02-14T15:52:58;13.30;99.90
7998;DHT22;4044;49.814;7.828;2024-02-14T15:55:23;13.30;99.90
7998;DHT22;4044;49.814;7.828;2024-02-14T15:57:49;13.20;99.90
7998;DHT22;4044;49.814;7.828;2024-02-14T16:00:14;13.20;99.90
7998;DHT22;4044;49.814;7.828;2024-02-14T16:02:40;13.20;99.90
7998;DHT22;4044;49.814;7.828;2024-02-14T16:05:07;13.20;99.90
7998;DHT22;4044;49.814;7.828;2024-02-14T16:07:34;13.10;99.90